Time;durP1;ratioP1;P1;durP2;ratioP2;P2;SDS_P1;SDS_P2;PMS_P1;PMS_P2;Temp;Humidity;BMP_temperature;BMP_pressure;BME280_temperature;BME280_humidity;BME280_pressure;Samples;Min_cycle;Max_cycle;Signal;HPM_P1;HPM_P2
2021/06/20 00:00:24;;;;;;;4.85;1.80;;;;;;;17.47;72.87;96202.03;5114981;28;20030;-62
2021/06/20 00:02:52;;;;;;;2.35;1.30;;;;;;;17.42;72.82;96199.72;5114924;28;20389;-62
2021/06/20 00:05:21;;;;;;;1.63;1.52;;;;;;;17.38;72.77;96198.25;5115208;28;20055;-64
2021/06/20 00:07:47;;;;;;;2.40;1.55;;;;;;;17.39;73.17;96199.94;5113801;28;20023;-61
2021/06/20 00:10:20;;;;;;;5.20;1.73;;;;;;;17.36;73.17;96196.66;5115633;28;20389;-63
2021/06/20 00:12:47;;;;;;;4.72;1.67;;;;;;;17.36;73.17;96194.88;5115062;28;20085;-64
2021/06/20 00:15:16;;;;;;;15.80;1.90;;;;;;;17.33;73.20;96197.72;5114524;28;20027;-62
2021/06/20 00:17:43;;;;;;;5.00;1.90;;;;;;;17.20;72.98;96196.91;5115231;28;20062;-63
2021/06/20 00:20:10;;;;;;;6.68;2.30;;;;;;;17.09;73.33;96187.94;5115070;28;20341;-64
2021/06/20 00:22:36;;;;;;;6.38;1.83;;;;;;;17.02;73.32;96184.00;5115123;28;20023;-64
2021/06/20 00:25:04;;;;;;;2.92;1.50;;;;;;;16.91;73.47;96175.03;5114828;28;20030;-63
2021/06/20 00:27:30;;;;;;;4.72;2.15;;;;;;;16.84;74.00;96162.34;5114845;28;20044;-62
2021/06/20 00:29:56;;;;;;;8.60;1.88;;;;;;;16.78;73.87;96161.84;5114719;28;20034;-63
2021/06/20 00:32:21;;;;;;;5.32;2.83;;;;;;;16.60;74.57;96166.59;5114977;28;20053;-63
2021/06/20 00:34:47;;;;;;;2.38;1.90;;;;;;;16.46;74.95;96169.34;5114898;28;20020;-64
2021/06/20 00:37:12;;;;;;;15.93;3.13;;;;;;;16.41;75.26;96175.75;5114618;28;20043;-63
2021/06/20 00:39:38;;;;;;;9.38;2.00;;;;;;;16.41;74.88;96173.09;5114632;28;20351;-63
2021/06/20 00:42:04;;;;;;;2.53;2.30;;;;;;;16.40;74.98;96170.56;5113241;28;20038;-60
2021/06/20 00:44:29;;;;;;;8.50;2.10;;;;;;;16.42;75.02;96168.69;5114005;28;20053;-61
2021/06/20 00:46:55;;;;;;;17.02;2.40;;;;;;;16.33;74.77;96164.03;5114310;28;20024;-61
2021/06/20 00:49:20;;;;;;;6.88;1.80;;;;;;;16.20;74.91;96167.50;5114612;28;20118;-61
2021/06/20 00:51:46;;;;;;;12.13;3.25;;;;;;;16.04;75.60;96165.88;5114704;28;20028;-62
2021/06/20 00:54:13;;;;;;;16.40;1.77;;;;;;;15.99;75.76;96170.63;5114328;28;20056;-63
2021/06/20 00:56:39;;;;;;;8.02;3.05;;;;;;;15.90;76.11;96177.28;5114055;28;20030;-62
2021/06/20 00:59:05;;;;;;;8.70;2.30;;;;;;;15.89;76.32;96178.25;5114199;28;20084;-63
2021/06/20 01:01:32;;;;;;;5.70;2.55;;;;;;;15.83;76.26;96172.53;5114145;28;20027;-63
2021/06/20 01:03:58;;;;;;;7.28;2.28;;;;;;;15.74;77.24;96166.06;5114359;28;20028;-62
2021/06/20 01:06:25;;;;;;;6.22;2.60;;;;;;;15.74;77.35;96169.53;5113931;28;20450;-62
2021/06/20 01:08:51;;;;;;;6.53;2.47;;;;;;;15.70;77.53;96170.69;5113515;28;20032;-63
2021/06/20 01:11:17;;;;;;;3.67;2.63;;;;;;;15.64;77.79;96173.72;5114009;28;20019;-61
2021/06/20 01:13:44;;;;;;;9.95;3.60;;;;;;;15.57;78.42;96175.06;5113671;28;20410;-63
2021/06/20 01:16:10;;;;;;;4.05;2.38;;;;;;;15.51;78.35;96173.66;5113787;28;20059;-62
2021/06/20 01:18:36;;;;;;;5.53;2.78;;;;;;;15.55;78.42;96177.78;5113858;28;20028;-65
2021/06/20 01:21:04;;;;;;;3.22;2.60;;;;;;;15.59;78.47;96183.72;5113811;28;20016;-60
2021/06/20 01:23:30;;;;;;;8.10;2.85;;;;;;;15.69;78.33;96181.34;5113767;28;20024;-63
2021/06/20 01:25:57;;;;;;;5.15;3.03;;;;;;;15.76;78.03;96186.13;5113994;28;20035;-62
2021/06/20 01:28:28;;;;;;;3.10;2.60;;;;;;;15.73;78.24;96181.03;5113306;28;20024;-64
2021/06/20 01:31:01;;;;;;;6.43;2.67;;;;;;;15.75;78.32;96194.13;5113578;28;20397;-64
2021/06/20 01:33:27;;;;;;;8.50;3.05;;;;;;;15.83;78.24;96183.09;5114001;28;20028;-62
2021/06/20 01:35:54;;;;;;;9.10;2.50;;;;;;;15.86;78.15;96191.63;5113223;28;20031;-63
2021/06/20 01:38:20;;;;;;;8.65;2.47;;;;;;;15.89;78.00;96188.78;5113401;28;20027;-60
2021/06/20 01:40:46;;;;;;;3.40;2.55;;;;;;;15.95;78.08;96184.91;5113370;28;20115;-63
2021/06/20 01:43:12;;;;;;;4.63;2.95;;;;;;;15.99;77.91;96186.44;5113286;28;20172;-64
2021/06/20 01:45:39;;;;;;;4.78;2.60;;;;;;;16.09;77.32;96181.41;5113452;28;20030;-63
2021/06/20 01:48:06;;;;;;;5.18;2.50;;;;;;;16.17;77.52;96186.16;5113290;28;20075;-62
2021/06/20 01:50:33;;;;;;;12.95;3.50;;;;;;;16.15;77.77;96185.41;5113295;28;20032;-60
2021/06/20 01:53:17;;;;;;;4.93;3.05;;;;;;;16.20;77.44;96188.63;5095299;28;20393;-62
2021/06/20 01:55:45;;;;;;;2.65;2.45;;;;;;;16.28;76.77;96188.94;5113440;28;20035;-60
2021/06/20 01:58:14;;;;;;;7.90;3.33;;;;;;;16.23;76.83;96190.19;5113200;28;20055;-63
2021/06/20 02:00:43;;;;;;;2.63;2.42;;;;;;;16.22;76.50;96183.22;5095101;28;20389;-63
2021/06/20 02:03:18;;;;;;;2.90;2.70;;;;;;;16.26;76.49;96190.81;5113427;28;20093;-63
2021/06/20 02:05:46;;;;;;;4.43;2.60;;;;;;;16.28;76.02;96191.56;5112026;28;20130;-62
2021/06/20 02:08:12;;;;;;;7.13;2.42;;;;;;;16.27;75.95;96200.44;5113104;28;20047;-64
2021/06/20 02:10:39;;;;;;;3.85;2.38;;;;;;;16.27;75.52;96197.81;5112538;28;20016;-62
2021/06/20 02:13:05;;;;;;;2.70;2.50;;;;;;;16.32;75.12;96194.88;5112425;28;20503;-62
2021/06/20 02:15:32;;;;;;;7.85;2.58;;;;;;;16.40;75.29;96194.31;5113247;28;20031;-63
2021/06/20 02:17:58;;;;;;;9.23;2.83;;;;;;;16.42;75.41;96201.22;5112146;28;20028;-61
2021/06/20 02:20:23;;;;;;;2.80;2.60;;;;;;;16.35;75.33;96204.38;5111850;28;20034;-62
2021/06/20 02:22:51;;;;;;;6.18;2.58;;;;;;;16.37;75.49;96200.66;5113350;28;20108;-64
2021/06/20 02:25:18;;;;;;;4.03;2.30;;;;;;;16.34;75.47;96202.69;5113395;28;20111;-62
2021/06/20 02:27:46;;;;;;;3.63;2.67;;;;;;;16.22;75.65;96202.53;5116273;28;20019;-61
2021/06/20 02:30:14;;;;;;;7.40;2.60;;;;;;;16.17;75.73;96199.38;5117008;28;20414;-61
2021/06/20 02:32:40;;;;;;;6.22;3.17;;;;;;;16.10;76.03;96204.19;5117384;28;20032;-65
2021/06/20 02:35:08;;;;;;;4.10;2.63;;;;;;;16.12;76.09;96196.16;5117081;28;20077;-63
2021/06/20 02:37:35;;;;;;;4.60;2.55;;;;;;;16.09;76.19;96204.28;5116718;28;20051;-64
2021/06/20 02:40:00;;;;;;;8.15;3.33;;;;;;;16.04;76.30;96204.59;5116725;28;20466;-62
2021/06/20 02:42:26;;;;;;;4.32;3.20;;;;;;;16.04;76.29;96205.44;5116974;28;20119;-64
2021/06/20 02:44:53;;;;;;;7.85;2.42;;;;;;;16.01;76.37;96204.78;5116048;28;20099;-63
2021/06/20 02:47:19;;;;;;;3.42;2.88;;;;;;;15.97;76.50;96205.94;5116988;28;20066;-65
2021/06/20 02:49:46;;;;;;;4.50;3.53;;;;;;;15.97;76.31;96208.56;5115990;28;20027;-65
2021/06/20 02:52:14;;;;;;;4.85;3.00;;;;;;;15.99;76.26;96212.81;5116987;28;20019;-63
2021/06/20 02:54:49;;;;;;;11.00;3.83;;;;;;;15.97;76.59;96211.22;5116487;28;20023;-61
2021/06/20 02:57:20;;;;;;;3.35;3.05;;;;;;;15.95;76.84;96218.38;5116410;28;20038;-61
2021/06/20 02:59:46;;;;;;;8.48;3.00;;;;;;;15.91;76.97;96226.47;5116075;28;20484;-62
2021/06/20 03:02:11;;;;;;;7.85;3.15;;;;;;;16.00;76.86;96217.16;5116773;28;20401;-63
2021/06/20 03:04:38;;;;;;;4.72;3.28;;;;;;;16.07;76.60;96220.22;5116429;28;20063;-62
2021/06/20 03:07:03;;;;;;;3.25;2.90;;;;;;;16.02;76.23;96217.03;5115796;28;20118;-62
2021/06/20 03:09:29;;;;;;;5.03;3.00;;;;;;;15.95;76.43;96226.28;5115775;28;20102;-65
2021/06/20 03:11:55;;;;;;;5.43;2.70;;;;;;;15.80;77.02;96234.22;5116403;28;20027;-64
2021/06/20 03:14:20;;;;;;;5.45;3.30;;;;;;;15.69;77.25;96234.91;5116453;28;20027;-61
2021/06/20 03:16:47;;;;;;;3.15;2.88;;;;;;;15.73;77.49;96236.41;5115995;28;20036;-62
2021/06/20 03:19:14;;;;;;;6.78;2.92;;;;;;;15.78;77.45;96234.31;5116580;28;20024;-63
2021/06/20 03:21:41;;;;;;;4.72;3.00;;;;;;;15.72;77.58;96231.22;5116022;28;20114;-61
2021/06/20 03:24:07;;;;;;;6.80;3.25;;;;;;;15.79;77.52;96235.16;5116602;28;20019;-62
2021/06/20 03:26:34;;;;;;;4.72;2.67;;;;;;;15.85;77.69;96229.50;5116034;28;20043;-63
2021/06/20 03:28:59;;;;;;;4.53;2.83;;;;;;;15.92;77.56;96233.44;5116301;28;20024;-63
2021/06/20 03:31:26;;;;;;;12.82;3.47;;;;;;;15.99;77.62;96228.66;5115787;28;20019;-64
2021/06/20 03:33:52;;;;;;;3.85;3.10;;;;;;;16.04;77.48;96225.69;5116068;28;20118;-63
2021/06/20 03:36:18;;;;;;;4.03;2.50;;;;;;;16.06;77.17;96230.88;5115896;28;20103;-63
2021/06/20 03:38:44;;;;;;;7.65;2.90;;;;;;;16.20;77.77;96236.09;5114990;28;20587;-61
2021/06/20 03:41:10;;;;;;;8.90;2.75;;;;;;;16.22;77.03;96242.09;5115501;28;20031;-62
2021/06/20 03:43:36;;;;;;;3.28;2.83;;;;;;;16.17;76.81;96231.84;5115876;28;20374;-62
2021/06/20 03:46:02;;;;;;;4.53;2.30;;;;;;;16.29;76.36;96232.84;5116010;28;20039;-63
2021/06/20 03:48:28;;;;;;;9.15;2.15;;;;;;;16.41;75.71;96230.34;5115999;28;20016;-62
2021/06/20 03:50:54;;;;;;;3.42;2.20;;;;;;;16.50;75.04;96232.34;5114713;28;20034;-64
2021/06/20 03:53:20;;;;;;;2.60;2.08;;;;;;;16.65;74.70;96241.03;5115763;28;20026;-61
2021/06/20 03:55:45;;;;;;;5.07;2.28;;;;;;;16.79;74.30;96239.25;5115509;28;20074;-64
2021/06/20 03:58:11;;;;;;;4.07;1.67;;;;;;;16.91;74.11;96233.16;5115601;28;20028;-61
2021/06/20 04:00:37;;;;;;;6.07;2.83;;;;;;;17.02;74.29;96234.19;5115343;28;20023;-63
2021/06/20 04:03:04;;;;;;;3.97;2.05;;;;;;;17.13;73.34;96236.97;5115206;28;20034;-62
2021/06/20 04:05:30;;;;;;;6.20;1.80;;;;;;;17.26;73.22;96241.41;5115110;28;20074;-62
2021/06/20 04:07:56;;;;;;;2.08;1.70;;;;;;;17.30;72.61;96249.00;5115583;28;20080;-61
2021/06/20 04:10:22;;;;;;;3.85;2.10;;;;;;;17.41;73.15;96242.13;5114083;28;20056;-62
2021/06/20 04:12:47;;;;;;;6.07;2.40;;;;;;;17.43;73.44;96246.34;5115115;28;20028;-62
2021/06/20 04:15:13;;;;;;;3.70;2.10;;;;;;;17.53;72.56;96248.34;5115022;28;20030;-64
2021/06/20 04:17:38;;;;;;;3.85;2.25;;;;;;;17.67;73.88;96244.72;5114570;28;20035;-63
2021/06/20 04:20:11;;;;;;;2.10;1.90;;;;;;;17.74;73.35;96251.25;5114906;28;20028;-63
2021/06/20 04:22:37;;;;;;;2.25;1.80;;;;;;;17.79;71.19;96251.75;5114801;28;20109;-62
2021/06/20 04:25:03;;;;;;;2.70;2.03;;;;;;;17.85;71.65;96252.28;5114960;28;20024;-63
2021/06/20 04:27:29;;;;;;;2.15;1.95;;;;;;;17.90;71.35;96248.34;5115196;28;20057;-63
2021/06/20 04:29:54;;;;;;;2.05;1.90;;;;;;;17.92;70.96;96250.88;5114546;28;20028;-63
2021/06/20 04:32:20;;;;;;;2.67;2.13;;;;;;;17.97;70.08;96246.09;5114954;28;20100;-64
2021/06/20 04:34:45;;;;;;;1.95;1.83;;;;;;;18.04;70.69;96250.00;5114399;28;20034;-61
2021/06/20 04:37:11;;;;;;;4.90;2.10;;;;;;;18.00;72.00;96252.97;5114949;28;20054;-64
2021/06/20 04:39:37;;;;;;;2.00;1.90;;;;;;;18.03;70.71;96244.81;5096408;28;20034;-64
2021/06/20 04:42:03;;;;;;;3.08;1.90;;;;;;;18.04;71.00;96243.84;5114771;28;20034;-60
2021/06/20 04:44:46;;;;;;;2.33;2.13;;;;;;;18.04;71.02;96239.41;5114386;28;20028;-65
2021/06/20 04:47:14;;;;;;;2.28;2.08;;;;;;;18.14;70.74;96233.47;5094756;28;20032;-65
2021/06/20 04:49:40;;;;;;;3.45;2.00;;;;;;;18.20;70.27;96238.31;5113542;28;20022;-64
2021/06/20 04:52:08;;;;;;;2.67;1.85;;;;;;;18.28;70.68;96245.69;5114677;28;20031;-62
2021/06/20 04:54:36;;;;;;;2.67;2.10;;;;;;;18.33;69.87;96238.22;5114157;28;20084;-60
2021/06/20 04:57:08;;;;;;;2.45;2.25;;;;;;;18.33;70.41;96238.22;5114357;28;20054;-66
2021/06/20 04:59:33;;;;;;;2.58;2.35;;;;;;;18.29;69.88;96232.34;5114601;28;20072;-63
2021/06/20 05:01:59;;;;;;;2.85;2.13;;;;;;;18.43;68.62;96243.69;5114310;28;20047;-61
2021/06/20 05:04:24;;;;;;;2.35;2.10;;;;;;;18.52;69.37;96240.38;5113751;28;20438;-63
2021/06/20 05:06:51;;;;;;;3.95;2.40;;;;;;;18.58;69.00;96236.41;5114235;28;20031;-63
2021/06/20 05:09:17;;;;;;;2.70;2.20;;;;;;;18.70;68.73;96237.28;5114222;28;20116;-62
2021/06/20 05:11:42;;;;;;;2.72;2.22;;;;;;;18.79;68.86;96233.09;5113158;28;20063;-62
2021/06/20 05:14:08;;;;;;;2.47;2.25;;;;;;;18.80;67.73;96235.63;5113806;28;20370;-62
2021/06/20 05:16:33;;;;;;;5.88;2.20;;;;;;;18.92;67.95;96238.28;5113549;28;20046;-64
2021/06/20 05:18:59;;;;;;;4.90;2.53;;;;;;;18.92;67.63;96236.50;5113723;28;20484;-63
2021/06/20 05:21:24;;;;;;;6.45;2.22;;;;;;;18.96;68.12;96244.19;5113957;28;20574;-64
2021/06/20 05:23:50;;;;;;;3.67;2.40;;;;;;;19.05;67.77;96241.69;5114018;28;20486;-65
2021/06/20 05:26:15;;;;;;;5.35;2.85;;;;;;;19.15;67.26;96247.13;5113088;28;20497;-63
2021/06/20 05:28:41;;;;;;;2.30;2.10;;;;;;;19.26;67.21;96238.34;5114021;28;20355;-62
2021/06/20 05:31:06;;;;;;;2.63;2.20;;;;;;;19.23;67.25;96238.56;5113105;28;20028;-64
2021/06/20 05:33:32;;;;;;;11.38;2.72;;;;;;;19.28;67.82;96236.44;5113908;28;20477;-65
2021/06/20 05:35:57;;;;;;;2.40;2.20;;;;;;;19.33;67.24;96236.06;5113390;28;20020;-61
2021/06/20 05:38:23;;;;;;;3.67;2.50;;;;;;;19.32;67.20;96237.88;5113782;28;20024;-64
2021/06/20 05:40:49;;;;;;;2.80;2.50;;;;;;;19.41;68.04;96236.28;5113557;28;20023;-65
2021/06/20 05:43:14;;;;;;;2.72;2.53;;;;;;;19.29;67.27;96232.81;5113414;28;20126;-64
2021/06/20 05:45:40;;;;;;;3.00;2.42;;;;;;;19.28;66.80;96228.47;5113264;28;20051;-63
2021/06/20 05:48:06;;;;;;;2.92;2.50;;;;;;;19.41;67.17;96232.78;5112705;28;20054;-59
2021/06/20 05:50:32;;;;;;;4.05;2.50;;;;;;;19.41;67.39;96243.41;5113773;28;20028;-64
2021/06/20 05:52:57;;;;;;;2.25;2.15;;;;;;;19.52;67.16;96234.59;5113650;28;20465;-65
2021/06/20 05:55:23;;;;;;;4.60;2.50;;;;;;;19.64;67.28;96223.03;5113209;28;20028;-64
2021/06/20 05:57:49;;;;;;;3.22;2.70;;;;;;;19.70;67.19;96227.00;5113024;28;20015;-62
2021/06/20 06:00:15;;;;;;;4.88;2.30;;;;;;;19.85;66.46;96226.72;5113286;28;20058;-63
2021/06/20 06:02:41;;;;;;;3.25;2.55;;;;;;;19.99;65.48;96228.25;5113467;28;20027;-64
2021/06/20 06:05:08;;;;;;;2.90;2.05;;;;;;;20.15;64.69;96223.41;5094050;28;20047;-61
2021/06/20 06:07:35;;;;;;;3.40;1.75;;;;;;;20.27;63.63;96228.66;5113354;28;20473;-62
2021/06/20 06:10:01;;;;;;;2.35;2.10;;;;;;;20.35;63.34;96228.91;5112465;28;20457;-62
2021/06/20 06:12:26;;;;;;;2.65;1.95;;;;;;;20.55;62.96;96231.69;5113155;28;20038;-62
2021/06/20 06:14:54;;;;;;;4.78;2.08;;;;;;;20.67;63.61;96232.47;5113493;28;20019;-63
2021/06/20 06:17:21;;;;;;;2.75;2.20;;;;;;;20.78;63.05;96228.91;5112894;28;20035;-62
2021/06/20 06:19:48;;;;;;;5.75;2.17;;;;;;;20.84;61.94;96226.56;5112902;28;20073;-63
2021/06/20 06:22:16;;;;;;;1.98;1.88;;;;;;;20.91;60.72;96231.38;5113070;28;20035;-64
2021/06/20 06:24:43;;;;;;;3.63;2.13;;;;;;;21.03;61.70;96240.13;5113143;28;20110;-63
2021/06/20 06:27:09;;;;;;;4.50;2.10;;;;;;;21.05;60.94;96238.19;5113015;28;20023;-62
2021/06/20 06:29:34;;;;;;;4.05;2.25;;;;;;;21.18;61.40;96243.28;5112925;28;20034;-61
2021/06/20 06:32:00;;;;;;;2.40;2.20;;;;;;;21.29;61.65;96250.34;5113017;28;20027;-62
2021/06/20 06:34:26;;;;;;;3.95;1.67;;;;;;;21.44;60.82;96245.53;5112631;28;20053;-65
2021/06/20 06:36:52;;;;;;;9.32;2.20;;;;;;;21.62;60.15;96251.06;5113167;28;20048;-62
2021/06/20 06:39:19;;;;;;;1.73;1.63;;;;;;;21.68;59.76;96250.53;5112544;28;20024;-63
2021/06/20 06:41:45;;;;;;;2.72;1.92;;;;;;;21.88;61.07;96250.59;5112600;28;20042;-61
2021/06/20 06:44:10;;;;;;;2.10;1.92;;;;;;;21.87;58.41;96245.41;5112876;28;20122;-63
2021/06/20 06:46:36;;;;;;;2.50;1.70;;;;;;;22.34;61.40;96236.78;5112194;28;20055;-64
2021/06/20 06:49:02;;;;;;;4.60;1.95;;;;;;;22.89;59.36;96243.38;5112486;28;20024;-61
2021/06/20 06:51:27;;;;;;;7.30;2.08;;;;;;;23.31;56.18;96241.28;5113007;28;20496;-64
2021/06/20 06:53:53;;;;;;;3.05;1.65;;;;;;;23.37;56.63;96239.88;5112954;28;20024;-63
2021/06/20 06:56:19;;;;;;;4.45;1.80;;;;;;;23.43;56.19;96241.97;5113006;28;20020;-62
2021/06/20 06:58:45;;;;;;;4.28;1.55;;;;;;;23.31;55.25;96252.81;5094905;28;20381;-64
2021/06/20 07:01:11;;;;;;;2.88;1.50;;;;;;;23.25;55.67;96247.19;5112647;28;20028;-61
2021/06/20 07:03:37;;;;;;;8.05;1.73;;;;;;;23.02;55.37;96240.38;5112884;28;20034;-61
2021/06/20 07:06:03;;;;;;;2.25;1.55;;;;;;;22.74;54.67;96239.44;5112611;28;20023;-64
2021/06/20 07:08:28;;;;;;;3.30;1.40;;;;;;;22.44;55.79;96234.13;5112477;28;20024;-61
2021/06/20 07:10:54;;;;;;;3.83;1.70;;;;;;;22.38;57.03;96229.34;5112813;28;20012;-63
2021/06/20 07:13:20;;;;;;;1.77;1.67;;;;;;;22.31;56.06;96229.06;5114426;28;20537;-63
2021/06/20 07:15:46;;;;;;;4.80;1.60;;;;;;;22.13;56.46;96228.91;5114449;28;20027;-62
2021/06/20 07:18:12;;;;;;;1.80;1.70;;;;;;;21.88;57.66;96231.94;5115358;28;20027;-61
2021/06/20 07:20:37;;;;;;;1.70;1.60;;;;;;;21.77;57.68;96226.75;5115166;28;20119;-62
2021/06/20 07:23:03;;;;;;;2.78;1.75;;;;;;;21.72;57.79;96224.47;5115288;28;20024;-61
2021/06/20 07:25:29;;;;;;;3.28;1.75;;;;;;;21.80;58.89;96229.13;5114833;28;20019;-63
2021/06/20 07:27:55;;;;;;;1.75;1.65;;;;;;;21.77;58.83;96232.94;5115713;28;20028;-62
2021/06/20 07:30:22;;;;;;;2.00;1.75;;;;;;;21.75;57.79;96231.31;5116411;28;20040;-62
2021/06/20 07:32:49;;;;;;;2.67;1.80;;;;;;;21.74;56.61;96227.00;5116188;28;20019;-64
2021/06/20 07:35:16;;;;;;;2.47;1.70;;;;;;;21.72;58.80;96232.44;5115690;28;20055;-62
2021/06/20 07:37:42;;;;;;;1.60;1.50;;;;;;;21.59;57.47;96225.53;5115279;28;20023;-61
2021/06/20 07:40:10;;;;;;;1.83;1.73;;;;;;;21.64;60.59;96241.09;5114533;28;20035;-61
2021/06/20 07:42:37;;;;;;;2.67;1.60;;;;;;;21.88;57.86;96228.47;5113496;28;20036;-64
2021/06/20 07:45:05;;;;;;;2.75;1.60;;;;;;;22.06;56.72;96233.94;5069214;28;21038;-62
2021/06/20 07:47:31;;;;;;;3.60;1.70;;;;;;;22.24;58.02;96227.94;5095533;28;20024;-62
2021/06/20 07:49:56;;;;;;;3.00;1.75;;;;;;;22.47;57.97;96228.50;5095517;28;20039;-62
2021/06/20 07:52:23;;;;;;;3.15;1.60;;;;;;;22.72;57.09;96220.94;5096997;28;20469;-60
2021/06/20 07:54:49;;;;;;;4.15;1.70;;;;;;;22.89;55.50;96238.03;5115803;28;20046;-61
2021/06/20 07:57:21;;;;;;;1.80;1.55;;;;;;;22.82;55.02;96242.25;5115729;28;20034;-62
2021/06/20 07:59:50;;;;;;;2.72;1.58;;;;;;;22.88;54.78;96232.84;5114994;28;20023;-60
2021/06/20 08:02:20;;;;;;;1.75;1.48;;;;;;;22.94;55.82;96237.59;5115490;28;20033;-60
2021/06/20 08:04:47;;;;;;;1.67;1.58;;;;;;;22.92;55.30;96240.41;5115734;28;20038;-61
2021/06/20 08:07:13;;;;;;;2.20;1.55;;;;;;;22.96;58.23;96241.81;5115449;28;20111;-61
2021/06/20 08:09:39;;;;;;;5.93;1.63;;;;;;;22.76;58.07;96240.16;5114368;28;20024;-62
2021/06/20 08:12:05;;;;;;;1.80;1.40;;;;;;;22.88;57.25;96239.03;5114575;28;20129;-61
2021/06/20 08:14:32;;;;;;;1.50;1.20;;;;;;;22.79;55.68;96234.53;5114611;28;20019;-62
2021/06/20 08:16:57;;;;;;;2.53;1.15;;;;;;;22.69;55.09;96242.53;5114202;28;20112;-60
2021/06/20 08:19:23;;;;;;;2.30;1.50;;;;;;;22.65;55.81;96242.00;5095759;28;20485;-62
2021/06/20 08:21:49;;;;;;;1.48;1.27;;;;;;;22.50;56.01;96244.22;5114164;28;20054;-62
2021/06/20 08:24:15;;;;;;;2.35;1.70;;;;;;;22.55;57.35;96238.47;5114966;28;20028;-61
2021/06/20 08:26:42;;;;;;;1.90;1.33;;;;;;;22.58;55.82;96244.38;5115328;28;20020;-61
2021/06/20 08:29:08;;;;;;;3.53;1.38;;;;;;;22.69;54.49;96242.53;5115138;28;20103;-59
2021/06/20 08:31:34;;;;;;;1.33;1.08;;;;;;;22.78;55.28;96240.88;5114719;28;20118;-60
2021/06/20 08:34:01;;;;;;;3.17;1.30;;;;;;;22.92;55.37;96239.56;5114993;28;20035;-61
2021/06/20 08:36:27;;;;;;;4.05;1.40;;;;;;;22.98;55.20;96244.31;5115009;28;20015;-60
2021/06/20 08:38:54;;;;;;;1.58;1.48;;;;;;;23.17;55.99;96251.44;5114689;28;20027;-61
2021/06/20 08:41:21;;;;;;;7.72;1.50;;;;;;;23.26;55.81;96252.38;5114869;28;20114;-60
2021/06/20 08:43:49;;;;;;;1.40;1.30;;;;;;;23.50;54.66;96244.91;5114772;28;20418;-59
2021/06/20 08:46:14;;;;;;;1.38;1.30;;;;;;;23.51;57.46;96246.59;5114702;28;20031;-61
2021/06/20 08:48:40;;;;;;;1.30;1.20;;;;;;;23.72;54.82;96249.03;5114324;28;20494;-61
2021/06/20 08:51:06;;;;;;;2.15;1.48;;;;;;;23.87;57.17;96251.19;5114724;28;20043;-62
2021/06/20 08:53:32;;;;;;;4.80;1.70;;;;;;;24.02;55.18;96252.34;5114670;28;20031;-60
2021/06/20 08:55:58;;;;;;;1.65;1.40;;;;;;;24.21;56.28;96239.91;5114796;28;20047;-60
2021/06/20 08:58:32;;;;;;;1.40;1.30;;;;;;;24.30;53.58;96241.66;5114471;28;20050;-62
2021/06/20 09:01:00;;;;;;;1.77;1.23;;;;;;;24.27;52.45;96238.44;5114081;28;20366;-59
2021/06/20 09:03:46;;;;;;;1.45;1.35;;;;;;;24.39;53.20;96239.91;5114435;28;20063;-61
2021/06/20 09:06:22;;;;;;;5.50;1.52;;;;;;;24.50;53.06;96236.13;5114027;28;20439;-63
2021/06/20 09:08:55;;;;;;;2.90;1.20;;;;;;;24.91;51.75;96243.69;5114391;28;20053;-61
2021/06/20 09:11:32;;;;;;;2.42;1.20;;;;;;;24.85;49.82;96249.63;5113445;28;20067;-61
2021/06/20 09:14:11;;;;;;;2.83;1.30;;;;;;;25.06;49.50;96256.50;5114424;28;20496;-61
2021/06/20 09:16:51;;;;;;;1.85;1.20;;;;;;;25.05;49.86;96249.47;5113287;28;20051;-61
2021/06/20 09:19:29;;;;;;;1.90;1.30;;;;;;;24.88;50.47;96249.34;5113995;28;20035;-63
2021/06/20 09:21:57;;;;;;;1.83;1.10;;;;;;;24.98;51.21;96246.56;5114217;28;20031;-61
2021/06/20 09:24:23;;;;;;;1.52;1.35;;;;;;;24.92;51.05;96248.03;5113945;28;20027;-63
2021/06/20 09:26:54;;;;;;;1.50;0.95;;;;;;;25.18;50.89;96249.91;5113969;28;20019;-62
2021/06/20 09:29:30;;;;;;;1.45;1.30;;;;;;;25.07;50.32;96252.84;5111974;28;20397;-61
2021/06/20 09:31:57;;;;;;;6.25;1.70;;;;;;;25.16;49.67;96257.22;5110015;28;20055;-63
2021/06/20 09:34:23;;;;;;;1.63;1.35;;;;;;;25.17;49.96;96245.56;5113787;28;20173;-61
2021/06/20 09:36:59;;;;;;;1.45;1.23;;;;;;;25.17;49.84;96240.19;5113576;28;20106;-61
2021/06/20 09:39:25;;;;;;;2.28;1.40;;;;;;;25.38;50.40;96244.31;5113515;28;20031;-61
2021/06/20 09:42:01;;;;;;;1.48;1.38;;;;;;;25.58;50.76;96239.56;5113756;28;20473;-62
2021/06/20 09:44:35;;;;;;;3.10;1.33;;;;;;;25.68;50.27;96238.63;5112945;28;20032;-61
2021/06/20 09:47:01;;;;;;;1.45;0.95;;;;;;;25.63;48.85;96243.63;5113667;28;20483;-61
2021/06/20 09:49:28;;;;;;;2.42;1.27;;;;;;;25.47;49.78;96237.19;5113708;28;20054;-62
2021/06/20 09:51:55;;;;;;;1.77;1.10;;;;;;;25.39;49.02;96237.13;5113590;28;20050;-63
2021/06/20 09:54:54;;;;;;;1.10;1.00;;;;;;;25.27;47.35;96239.22;5113649;28;20488;-60
2021/06/20 09:57:20;;;;;;;1.42;1.17;;;;;;;25.15;48.38;96239.50;5094009;28;20075;-62
2021/06/20 10:00:05;;;;;;;2.65;1.10;;;;;;;24.94;49.57;96234.50;5113567;28;20028;-62
2021/06/20 10:02:34;;;;;;;1.00;1.00;;;;;;;24.88;48.60;96233.31;5113482;28;20030;-63
2021/06/20 10:05:01;;;;;;;1.10;0.90;;;;;;;24.90;48.86;96231.31;5113250;28;20023;-61
2021/06/20 10:07:30;;;;;;;1.10;1.00;;;;;;;24.81;50.79;96232.22;5113559;28;20020;-62
2021/06/20 10:10:00;;;;;;;5.05;1.75;;;;;;;24.66;51.58;96229.25;5113549;28;20023;-60
2021/06/20 10:12:29;;;;;;;1.40;1.30;;;;;;;24.56;50.51;96224.84;5113102;28;20043;-63
2021/06/20 10:14:57;;;;;;;1.77;1.40;;;;;;;24.56;51.88;96216.00;5113330;28;20034;-61
2021/06/20 10:17:30;;;;;;;1.30;1.20;;;;;;;24.69;51.95;96207.56;5113164;28;20040;-61
2021/06/20 10:19:58;;;;;;;1.30;1.17;;;;;;;24.83;52.21;96207.00;5113477;28;20036;-61
2021/06/20 10:22:24;;;;;;;1.10;1.00;;;;;;;24.94;51.67;96218.47;5112792;28;20039;-61
2021/06/20 10:24:53;;;;;;;1.20;1.10;;;;;;;24.68;49.79;96204.03;5113207;28;20012;-63
2021/06/20 10:27:34;;;;;;;1.27;0.95;;;;;;;24.79;49.61;96207.47;5113272;28;20024;-62
2021/06/20 10:30:09;;;;;;;1.25;1.08;;;;;;;24.97;49.79;96202.97;5092967;28;20059;-59
2021/06/20 10:32:42;;;;;;;1.33;0.93;;;;;;;25.13;48.30;96200.53;5092907;28;20035;-63
2021/06/20 10:35:14;;;;;;;0.95;0.90;;;;;;;25.14;49.71;96197.72;5093010;28;20051;-61
2021/06/20 10:37:41;;;;;;;1.20;1.10;;;;;;;25.40;52.69;96191.47;5092979;28;20438;-62
2021/06/20 10:40:31;;;;;;;1.10;0.95;;;;;;;25.63;50.36;96196.28;5093810;28;20028;-62
2021/06/20 10:43:00;;;;;;;0.98;0.90;;;;;;;25.98;48.67;96194.34;5113179;28;20036;-62
2021/06/20 10:45:45;;;;;;;1.45;1.05;;;;;;;26.35;47.99;96183.38;5113078;28;20020;-60
2021/06/20 10:48:19;;;;;;;2.88;0.80;;;;;;;26.61;47.35;96193.94;5115250;28;20038;-63
2021/06/20 10:50:54;;;;;;;4.47;1.00;;;;;;;26.62;45.07;96181.38;5116989;28;20023;-60
2021/06/20 10:53:21;;;;;;;1.20;0.77;;;;;;;26.57;45.07;96184.56;5116998;28;20028;-63
2021/06/20 10:55:50;;;;;;;2.50;0.70;;;;;;;26.49;44.58;96180.03;5117061;28;20015;-61
2021/06/20 10:58:27;;;;;;;2.45;0.80;;;;;;;26.65;45.45;96183.72;5116571;28;20055;-61
2021/06/20 11:01:08;;;;;;;0.95;0.73;;;;;;;26.66;45.34;96177.34;5117019;28;20031;-61
2021/06/20 11:03:35;;;;;;;2.63;0.75;;;;;;;26.54;46.82;96176.84;5116727;28;20032;-62
2021/06/20 11:06:08;;;;;;;0.90;0.77;;;;;;;26.56;46.22;96184.72;5116834;28;20377;-63
2021/06/20 11:08:35;;;;;;;1.10;0.70;;;;;;;26.44;46.11;96185.06;5116569;28;20038;-60
2021/06/20 11:11:09;;;;;;;3.42;0.98;;;;;;;26.22;44.63;96176.63;5116716;28;20027;-62
2021/06/20 11:13:35;;;;;;;2.42;0.80;;;;;;;25.88;46.58;96172.22;5116728;28;20031;-62
2021/06/20 11:16:25;;;;;;;1.15;0.70;;;;;;;25.69;46.83;96176.03;5116366;28;20043;-63
2021/06/20 11:19:10;;;;;;;1.20;0.90;;;;;;;25.75;48.30;96164.69;5104232;28;20063;-63
2021/06/20 11:21:42;;;;;;;2.60;0.80;;;;;;;25.68;45.73;96169.88;5116491;28;20062;-60
2021/06/20 11:24:11;;;;;;;2.20;0.80;;;;;;;25.82;47.07;96168.38;5116549;28;20492;-61
2021/06/20 11:26:37;;;;;;;3.22;0.85;;;;;;;25.70;46.59;96172.34;5116016;28;20030;-60
2021/06/20 11:29:06;;;;;;;1.88;0.93;;;;;;;25.79;48.02;96170.56;5116254;28;20020;-61
2021/06/20 11:31:47;;;;;;;0.68;0.68;;;;;;;25.74;46.26;96166.50;5116387;28;20016;-61
2021/06/20 11:34:13;;;;;;;;;;;;;;;25.77;47.45;96161.84;5116950;28;20028;-62
2021/06/20 11:36:38;;;;;;;3.95;0.90;;;;;;;25.81;47.37;96153.31;5115828;28;19960;-63